createdAt,value
2022-08-07T00:02:39.998Z,13.90
2022-08-07T00:05:05.713Z,13.90
2022-08-07T00:07:40.423Z,13.90
2022-08-07T00:10:30.593Z,13.90
2022-08-07T00:13:09.632Z,13.80
2022-08-07T00:15:50.908Z,13.80
2022-08-07T00:18:24.310Z,13.80
2022-08-07T00:21:01.534Z,13.70
2022-08-07T00:23:34.729Z,13.70
2022-08-07T00:26:18.607Z,13.60
2022-08-07T00:28:55.632Z,13.60
2022-08-07T00:31:37.776Z,13.60
2022-08-07T00:34:09.844Z,13.60
2022-08-07T00:36:42.745Z,13.60
2022-08-07T00:39:16.917Z,13.60
2022-08-07T00:42:02.037Z,13.60
2022-08-07T00:44:33.829Z,13.60
2022-08-07T00:47:02.625Z,13.50
2022-08-07T00:50:19.951Z,13.60
2022-08-07T00:52:20.132Z,13.50
2022-08-07T00:54:53.962Z,13.50
2022-08-07T00:57:25.767Z,13.50
2022-08-07T00:59:55.256Z,13.40
2022-08-07T01:02:28.708Z,13.40
2022-08-07T01:04:59.956Z,13.40
2022-08-07T01:07:31.161Z,13.40
2022-08-07T01:10:06.783Z,13.40
2022-08-07T01:12:53.361Z,13.30
2022-08-07T01:16:00.895Z,13.30
2022-08-07T01:18:16.771Z,13.30
2022-08-07T01:20:57.313Z,13.20
2022-08-07T01:23:37.938Z,13.20
2022-08-07T01:26:12.158Z,13.20
2022-08-07T01:28:45.879Z,13.20
2022-08-07T01:31:21.163Z,13.20
2022-08-07T01:34:05.767Z,13.20
2022-08-07T01:36:40.563Z,13.20
2022-08-07T01:39:16.479Z,13.20
2022-08-07T01:42:07.275Z,13.10
2022-08-07T01:44:43.156Z,13.10
2022-08-07T01:48:19.897Z,13.10
2022-08-07T01:50:07.697Z,13.10
2022-08-07T01:52:49.433Z,13.10
2022-08-07T01:55:27.919Z,13.00
2022-08-07T01:58:06.972Z,13.00
2022-08-07T02:01:09.744Z,12.90
2022-08-07T02:03:50.405Z,12.90
2022-08-07T02:06:32.004Z,12.80
2022-08-07T02:09:08.664Z,12.80
2022-08-07T02:12:03.798Z,12.70
2022-08-07T02:14:40.805Z,12.60
2022-08-07T02:17:24.871Z,12.60
2022-08-07T02:20:07.359Z,12.60
2022-08-07T02:22:43.770Z,12.60
2022-08-07T02:25:18.212Z,12.60
2022-08-07T02:28:01.398Z,12.60
2022-08-07T02:30:31.574Z,12.60
2022-08-07T02:33:09.020Z,12.60
2022-08-07T02:36:30.526Z,12.60
2022-08-07T02:38:38.174Z,12.60
2022-08-07T02:41:14.065Z,12.60
2022-08-07T02:43:53.447Z,12.60
2022-08-07T02:46:27.369Z,12.60
2022-08-07T02:48:58.712Z,12.60
2022-08-07T02:51:42.785Z,12.60
2022-08-07T02:54:21.274Z,12.60
2022-08-07T02:56:57.066Z,12.60
2022-08-07T02:59:30.027Z,12.60
2022-08-07T03:02:04.146Z,12.60
2022-08-07T03:04:33.589Z,12.60
2022-08-07T03:07:10.662Z,12.50
2022-08-07T03:09:47.219Z,12.50
2022-08-07T03:12:22.292Z,12.50
2022-08-07T03:15:07.755Z,12.50
2022-08-07T03:17:53.576Z,12.50
2022-08-07T03:20:24.435Z,12.50
2022-08-07T03:22:55.912Z,12.40
2022-08-07T03:25:32.447Z,12.40
2022-08-07T03:28:37.717Z,12.40
2022-08-07T03:31:24.622Z,12.40
2022-08-07T03:34:01.535Z,12.40
2022-08-07T03:36:35.913Z,12.40
2022-08-07T03:39:14.801Z,12.30
2022-08-07T03:41:47.665Z,12.30
2022-08-07T03:44:21.738Z,12.30
2022-08-07T03:47:14.007Z,12.30
2022-08-07T03:49:51.940Z,12.30
2022-08-07T03:52:27.260Z,12.30
2022-08-07T03:55:06.208Z,12.30
2022-08-07T03:58:32.977Z,12.30
2022-08-07T04:00:33.792Z,12.30
2022-08-07T04:03:06.585Z,12.30
2022-08-07T04:05:42.514Z,12.30
2022-08-07T04:08:21.500Z,12.30
2022-08-07T04:12:21.222Z,12.30
2022-08-07T04:14:11.026Z,12.20
2022-08-07T04:16:35.659Z,12.20
2022-08-07T04:19:14.708Z,12.20
2022-08-07T04:21:59.619Z,12.20
2022-08-07T04:24:41.190Z,12.30
2022-08-07T04:27:15.315Z,12.30
2022-08-07T04:30:01.260Z,12.40
2022-08-07T04:33:09.356Z,12.50
2022-08-07T04:35:41.752Z,12.50
2022-08-07T04:38:15.465Z,12.60
2022-08-07T04:40:52.449Z,12.80
2022-08-07T04:44:12.542Z,13.20
2022-08-07T04:46:35.894Z,13.70
2022-08-07T04:49:28.646Z,14.10
2022-08-07T04:52:27.526Z,14.60
2022-08-07T04:55:15.623Z,15.10
2022-08-07T04:58:27.405Z,15.50
2022-08-07T05:01:01.674Z,16.00
2022-08-07T05:04:06.469Z,16.40
2022-08-07T05:06:43.719Z,16.70
2022-08-07T05:09:45.858Z,17.00
2022-08-07T05:12:26.722Z,17.00
2022-08-07T05:15:21.533Z,17.10
2022-08-07T05:18:01.565Z,17.30
2022-08-07T05:20:42.864Z,17.30
2022-08-07T05:23:17.432Z,17.00
2022-08-07T05:26:10.382Z,16.80
2022-08-07T05:28:48.546Z,16.60
2022-08-07T05:31:24.116Z,16.40
2022-08-07T05:34:10.769Z,16.20
2022-08-07T05:36:49.142Z,16.20
2022-08-07T05:40:17.228Z,16.10
2022-08-07T05:42:33.845Z,16.10
2022-08-07T05:45:26.170Z,16.20
2022-08-07T05:48:03.656Z,16.30
2022-08-07T05:50:43.355Z,16.40
2022-08-07T05:54:08.445Z,16.50
2022-08-07T05:56:06.826Z,16.60
2022-08-07T05:58:52.588Z,16.70
2022-08-07T06:01:39.846Z,16.80
2022-08-07T06:04:11.777Z,16.90
2022-08-07T06:06:47.730Z,17.00
2022-08-07T06:10:03.833Z,17.10
2022-08-07T06:12:15.804Z,17.20
2022-08-07T06:14:51.034Z,17.30
2022-08-07T06:17:26.049Z,17.50
2022-08-07T06:20:04.156Z,17.40
2022-08-07T06:22:39.087Z,17.40
2022-08-07T06:25:28.551Z,17.60
2022-08-07T06:28:05.323Z,17.50
2022-08-07T06:30:41.473Z,17.60
2022-08-07T06:33:17.405Z,17.60
2022-08-07T06:36:12.236Z,17.70
2022-08-07T06:38:59.161Z,17.70
2022-08-07T06:42:00.907Z,17.70
2022-08-07T06:44:44.564Z,17.70
2022-08-07T06:47:21.367Z,17.80
2022-08-07T06:49:58.635Z,17.80
2022-08-07T06:52:35.618Z,17.90
2022-08-07T06:55:32.526Z,17.90
2022-08-07T06:58:04.247Z,18.00
2022-08-07T07:00:42.598Z,18.10
2022-08-07T07:03:17.314Z,18.00
2022-08-07T07:06:02.994Z,18.10
2022-08-07T07:08:39.908Z,18.10
2022-08-07T07:12:09.235Z,18.30
2022-08-07T07:14:08.340Z,18.30
2022-08-07T07:16:49.905Z,18.20
2022-08-07T07:19:55.851Z,18.20
2022-08-07T07:22:36.879Z,18.30
2022-08-07T07:26:31.152Z,18.30
2022-08-07T07:28:07.897Z,18.30
2022-08-07T07:31:01.940Z,18.40
2022-08-07T07:33:34.718Z,18.40
2022-08-07T07:36:13.201Z,18.50
2022-08-07T07:38:46.079Z,18.50
2022-08-07T07:41:20.905Z,18.60
2022-08-07T07:44:17.580Z,18.80
2022-08-07T07:46:55.245Z,18.80
2022-08-07T07:50:34.217Z,18.80
2022-08-07T07:52:23.998Z,18.80
2022-08-07T07:54:53.584Z,18.80
2022-08-07T07:57:43.527Z,18.90
2022-08-07T08:00:28.970Z,19.00
2022-08-07T08:03:07.186Z,18.90
2022-08-07T08:05:55.231Z,19.00
2022-08-07T08:08:34.603Z,18.90
2022-08-07T08:11:13.510Z,18.90
2022-08-07T08:13:53.951Z,19.00
2022-08-07T08:16:35.196Z,19.30
2022-08-07T08:19:09.676Z,19.60
2022-08-07T08:22:10.667Z,19.70
2022-08-07T08:25:18.494Z,19.90
2022-08-07T08:27:56.415Z,20.00
2022-08-07T08:30:32.173Z,20.20
2022-08-07T08:33:10.444Z,20.30
2022-08-07T08:35:50.789Z,20.40
2022-08-07T08:38:29.505Z,20.50
2022-08-07T08:41:14.336Z,20.60
2022-08-07T08:44:02.593Z,20.80
2022-08-07T08:46:44.899Z,20.90
2022-08-07T08:49:33.432Z,20.80
2022-08-07T08:52:20.648Z,20.80
2022-08-07T08:54:57.994Z,20.80
2022-08-07T08:57:41.066Z,20.80
2022-08-07T09:00:12.670Z,20.80
2022-08-07T09:02:57.586Z,20.80
2022-08-07T09:05:42.312Z,20.80
2022-08-07T09:08:31.192Z,20.90
2022-08-07T09:11:24.202Z,21.10
2022-08-07T09:14:15.017Z,21.20
2022-08-07T09:17:00.923Z,21.00
2022-08-07T09:19:57.406Z,21.00
2022-08-07T09:24:32.613Z,21.00
2022-08-07T09:25:54.253Z,21.10
2022-08-07T09:30:01.672Z,21.10
2022-08-07T09:31:38.470Z,21.10
2022-08-07T09:34:20.901Z,21.10
2022-08-07T09:37:00.815Z,21.30
2022-08-07T09:39:54.506Z,21.40
2022-08-07T09:42:47.694Z,21.40
2022-08-07T09:47:24.545Z,21.50
2022-08-07T09:49:59.680Z,21.50
2022-08-07T09:52:15.669Z,21.60
2022-08-07T09:54:56.585Z,21.60
2022-08-07T09:58:15.034Z,21.50
2022-08-07T10:01:02.929Z,21.70
2022-08-07T10:04:14.768Z,21.60
2022-08-07T10:07:53.012Z,21.70
2022-08-07T10:11:08.753Z,21.80
2022-08-07T10:14:00.392Z,22.00
2022-08-07T10:16:56.181Z,22.00
2022-08-07T10:19:53.854Z,21.90
2022-08-07T10:23:09.646Z,21.90
2022-08-07T10:26:02.207Z,21.90
2022-08-07T10:28:57.787Z,21.80
2022-08-07T10:31:50.269Z,22.00
2022-08-07T10:34:53.246Z,22.10
2022-08-07T10:37:59.961Z,22.00
2022-08-07T10:40:38.678Z,22.00
2022-08-07T10:43:16.106Z,21.90
2022-08-07T10:45:58.277Z,22.10
2022-08-07T10:48:39.822Z,22.20
2022-08-07T10:51:38.844Z,22.10
2022-08-07T10:54:16.250Z,22.10
2022-08-07T10:57:07.825Z,21.80
2022-08-07T10:59:59.833Z,21.60
2022-08-07T11:02:39.973Z,21.60
2022-08-07T11:05:49.107Z,21.40
2022-08-07T11:08:32.227Z,21.60
2022-08-07T11:11:09.968Z,21.60
2022-08-07T11:14:45.364Z,21.80
2022-08-07T11:16:51.023Z,21.60
2022-08-07T11:19:32.087Z,21.50
2022-08-07T11:22:18.779Z,21.70
2022-08-07T11:25:09.665Z,21.80
2022-08-07T11:28:02.697Z,22.10
2022-08-07T11:30:44.577Z,22.20
2022-08-07T11:33:54.010Z,22.10
2022-08-07T11:36:33.644Z,21.90
2022-08-07T11:39:19.347Z,21.90
2022-08-07T11:42:03.188Z,21.90
2022-08-07T11:44:52.830Z,21.80
2022-08-07T11:47:59.114Z,21.70
2022-08-07T11:50:58.063Z,21.70
2022-08-07T11:54:00.617Z,21.60
2022-08-07T11:56:52.432Z,21.60
2022-08-07T12:00:10.291Z,21.50
2022-08-07T12:03:41.377Z,21.80
2022-08-07T12:06:57.217Z,22.00
2022-08-07T12:09:37.822Z,22.10
2022-08-07T12:12:12.067Z,22.10
2022-08-07T12:14:55.675Z,22.00
2022-08-07T12:17:59.823Z,22.00
2022-08-07T12:20:36.502Z,22.00
2022-08-07T12:24:06.789Z,21.90
2022-08-07T12:26:40.759Z,22.00
2022-08-07T12:29:37.527Z,22.20
2022-08-07T12:32:20.441Z,22.50
2022-08-07T12:34:55.812Z,22.50
2022-08-07T12:38:11.731Z,22.50
2022-08-07T12:40:46.932Z,22.40
2022-08-07T12:44:01.361Z,22.30
2022-08-07T12:46:26.464Z,22.30
2022-08-07T12:49:39.852Z,22.50
2022-08-07T12:52:14.657Z,22.50
2022-08-07T12:55:03.970Z,22.40
2022-08-07T12:58:01.367Z,22.40
2022-08-07T13:00:49.479Z,22.30
2022-08-07T13:04:00.522Z,22.30
2022-08-07T13:07:01.388Z,22.20
2022-08-07T13:10:28.376Z,22.20
2022-08-07T13:13:48.549Z,22.30
2022-08-07T13:16:30.870Z,22.20
2022-08-07T13:19:25.272Z,22.20
2022-08-07T13:22:19.642Z,22.20
2022-08-07T13:25:02.508Z,22.20
2022-08-07T13:28:12.707Z,22.40
2022-08-07T13:30:40.872Z,22.40
2022-08-07T13:34:31.026Z,22.50
2022-08-07T13:36:25.716Z,22.40
2022-08-07T13:39:13.154Z,22.50
2022-08-07T13:41:58.674Z,22.50
2022-08-07T13:44:34.661Z,22.50
2022-08-07T13:47:09.399Z,22.40
2022-08-07T13:50:35.063Z,22.30
2022-08-07T13:52:41.134Z,22.30
2022-08-07T13:55:19.157Z,22.20
2022-08-07T13:58:02.200Z,22.30
2022-08-07T14:00:53.973Z,22.30
2022-08-07T14:04:05.300Z,22.30
2022-08-07T14:06:24.745Z,22.30
2022-08-07T14:08:55.484Z,22.30
2022-08-07T14:11:53.444Z,22.30
2022-08-07T14:14:21.215Z,22.40
2022-08-07T14:16:52.711Z,22.50
2022-08-07T14:20:40.308Z,22.50
2022-08-07T14:22:34.496Z,22.30
2022-08-07T14:25:12.789Z,22.10
2022-08-07T14:28:10.937Z,22.10
2022-08-07T14:30:40.708Z,22.10
2022-08-07T14:33:10.373Z,22.20
2022-08-07T14:35:47.367Z,22.10
2022-08-07T14:38:30.667Z,22.30
2022-08-07T14:41:04.203Z,22.40
2022-08-07T14:43:57.525Z,22.60
2022-08-07T14:46:33.208Z,22.60
2022-08-07T14:49:17.273Z,22.60
2022-08-07T14:52:04.529Z,22.60
2022-08-07T14:54:43.010Z,22.80
2022-08-07T14:57:19.348Z,22.90
2022-08-07T15:00:03.214Z,22.80
2022-08-07T15:02:39.083Z,22.90
2022-08-07T15:05:20.245Z,22.90
2022-08-07T15:07:53.650Z,22.90
2022-08-07T15:10:30.025Z,23.10
2022-08-07T15:16:01.124Z,23.30
2022-08-07T15:18:40.213Z,23.20
2022-08-07T15:21:58.960Z,23.10
2022-08-07T15:25:14.054Z,22.90
2022-08-07T15:27:11.206Z,22.90
2022-08-07T15:30:10.284Z,22.90
2022-08-07T15:32:39.889Z,23.00
2022-08-07T15:36:00.450Z,23.30
2022-08-07T15:41:24.327Z,23.50
2022-08-07T15:44:07.161Z,23.50
2022-08-07T15:52:30.331Z,23.50
2022-08-07T15:55:04.332Z,23.60
2022-08-07T15:57:40.229Z,23.80
2022-08-07T16:00:32.196Z,23.80
2022-08-07T16:03:21.786Z,23.80
2022-08-07T16:06:02.090Z,23.90
2022-08-07T16:08:38.588Z,23.70
2022-08-07T16:11:29.817Z,23.60
2022-08-07T16:14:10.159Z,23.50
2022-08-07T16:17:15.961Z,23.20
2022-08-07T16:20:34.070Z,23.10
2022-08-07T16:23:53.469Z,23.00
2022-08-07T16:26:59.198Z,23.10
2022-08-07T16:30:10.721Z,23.30
2022-08-07T16:32:54.272Z,23.40
2022-08-07T16:35:52.147Z,23.40
2022-08-07T16:39:01.423Z,23.50
2022-08-07T16:42:08.843Z,23.80
2022-08-07T16:46:21.389Z,23.80
2022-08-07T16:50:28.563Z,23.50
2022-08-07T16:52:11.233Z,23.70
2022-08-07T16:55:03.114Z,23.10
2022-08-07T16:58:02.231Z,22.80
2022-08-07T17:00:46.880Z,22.60
2022-08-07T17:03:58.551Z,22.50
2022-08-07T17:06:41.049Z,22.50
2022-08-07T17:10:05.180Z,22.40
2022-08-07T17:12:33.914Z,22.30
2022-08-07T17:15:18.938Z,22.10
2022-08-07T17:18:03.394Z,22.00
2022-08-07T17:20:37.512Z,22.00
2022-08-07T17:23:32.098Z,21.90
2022-08-07T17:26:23.943Z,21.90
2022-08-07T17:29:19.051Z,21.90
2022-08-07T17:32:31.315Z,21.90
2022-08-07T17:35:51.267Z,21.80
2022-08-07T17:38:33.215Z,21.80
2022-08-07T17:42:03.665Z,21.80
2022-08-07T17:44:50.119Z,21.60
2022-08-07T17:47:42.646Z,21.60
2022-08-07T17:50:20.017Z,21.50
2022-08-07T17:52:59.585Z,21.50
2022-08-07T17:56:01.172Z,21.50
2022-08-07T17:58:37.811Z,21.50
2022-08-07T18:01:21.334Z,21.40
2022-08-07T18:04:16.664Z,21.30
2022-08-07T18:07:19.375Z,21.20
2022-08-07T18:10:06.349Z,21.10
2022-08-07T18:12:54.428Z,21.00
2022-08-07T18:15:32.534Z,21.20
2022-08-07T18:18:33.160Z,21.10
2022-08-07T18:21:42.023Z,21.00
2022-08-07T18:24:07.052Z,21.00
2022-08-07T18:27:11.782Z,20.90
2022-08-07T18:30:07.864Z,20.90
2022-08-07T18:33:58.093Z,20.90
2022-08-07T18:36:53.731Z,20.90
2022-08-07T18:40:08.614Z,20.80
2022-08-07T18:42:50.118Z,20.80
2022-08-07T18:45:44.434Z,20.60
2022-08-07T18:50:05.463Z,20.50
2022-08-07T18:52:25.972Z,20.50
2022-08-07T18:54:50.905Z,20.40
2022-08-07T18:57:37.097Z,20.30
2022-08-07T19:00:32.439Z,20.30
2022-08-07T19:03:12.484Z,20.20
2022-08-07T19:06:01.989Z,20.30
2022-08-07T19:08:58.642Z,20.30
2022-08-07T19:12:04.107Z,20.20
2022-08-07T19:16:03.820Z,20.00
2022-08-07T19:18:12.152Z,19.90
2022-08-07T19:21:09.145Z,19.70
2022-08-07T19:23:59.081Z,19.60
2022-08-07T19:27:09.033Z,19.50
2022-08-07T19:30:59.991Z,19.40
2022-08-07T19:32:39.516Z,19.40
2022-08-07T19:35:13.665Z,19.30
2022-08-07T19:37:56.689Z,19.10
2022-08-07T19:40:34.757Z,19.10
2022-08-07T19:43:21.539Z,19.00
2022-08-07T19:46:09.333Z,18.90
2022-08-07T19:48:44.458Z,18.80
2022-08-07T19:51:53.254Z,18.70
2022-08-07T19:54:33.555Z,18.70
2022-08-07T19:58:03.626Z,18.60
2022-08-07T20:00:08.858Z,18.50
2022-08-07T20:02:52.267Z,18.40
2022-08-07T20:05:28.009Z,18.30
2022-08-07T20:08:04.862Z,18.30
2022-08-07T20:10:54.403Z,18.20
2022-08-07T20:13:38.265Z,18.10
2022-08-07T20:16:34.967Z,18.00
2022-08-07T20:19:09.958Z,17.90
2022-08-07T20:21:47.765Z,17.90
2022-08-07T20:24:28.445Z,17.80
2022-08-07T20:27:02.766Z,17.80
2022-08-07T20:29:48.375Z,17.80
2022-08-07T20:32:25.264Z,17.70
2022-08-07T20:34:58.474Z,17.70
2022-08-07T20:37:34.005Z,17.70
2022-08-07T20:40:32.473Z,17.60
2022-08-07T20:42:59.352Z,17.50
2022-08-07T20:46:26.008Z,17.50
2022-08-07T20:48:30.317Z,17.50
2022-08-07T20:51:03.001Z,17.40
2022-08-07T20:54:03.109Z,17.40
2022-08-07T20:56:28.271Z,17.40
2022-08-07T20:59:05.155Z,17.30
2022-08-07T21:01:45.947Z,17.30
2022-08-07T21:04:29.742Z,17.20
2022-08-07T21:07:03.917Z,17.10
2022-08-07T21:09:51.624Z,17.10
2022-08-07T21:12:28.990Z,17.10
2022-08-07T21:15:07.998Z,17.00
2022-08-07T21:18:03.911Z,17.00
2022-08-07T21:20:33.160Z,16.90
2022-08-07T21:23:09.122Z,16.90
2022-08-07T21:26:03.059Z,16.90
2022-08-07T21:28:48.544Z,16.90
2022-08-07T21:32:42.425Z,16.80
2022-08-07T21:34:32.598Z,16.70
2022-08-07T21:37:12.437Z,16.70
2022-08-07T21:39:56.431Z,16.70
2022-08-07T21:42:46.630Z,16.70
2022-08-07T21:46:03.795Z,16.70
2022-08-07T21:48:33.639Z,16.60
2022-08-07T21:51:24.923Z,16.60
2022-08-07T21:53:59.739Z,16.50
2022-08-07T21:56:47.802Z,16.50
2022-08-07T22:00:03.172Z,16.50
2022-08-07T22:02:30.706Z,16.50
2022-08-07T22:05:04.366Z,16.30
2022-08-07T22:07:58.103Z,16.40
2022-08-07T22:10:32.929Z,16.40
2022-08-07T22:13:09.542Z,16.50
2022-08-07T22:16:44.090Z,16.50
2022-08-07T22:18:44.814Z,16.50
2022-08-07T22:21:20.565Z,16.60
2022-08-07T22:23:58.017Z,16.60
2022-08-07T22:26:39.998Z,16.70
2022-08-07T22:29:33.830Z,16.60
2022-08-07T22:32:20.931Z,16.50
2022-08-07T22:34:56.507Z,16.40
2022-08-07T22:38:04.189Z,16.40
2022-08-07T22:40:43.773Z,16.40
2022-08-07T22:43:17.615Z,16.30
2022-08-07T22:46:46.735Z,16.10
2022-08-07T22:49:33.811Z,16.10
2022-08-07T22:52:43.441Z,15.90
2022-08-07T22:55:51.059Z,15.80
2022-08-07T22:59:05.024Z,15.70
2022-08-07T23:02:02.339Z,15.70
2022-08-07T23:06:10.075Z,15.60
2022-08-07T23:08:30.252Z,15.60
2022-08-07T23:11:17.241Z,15.60
2022-08-07T23:14:16.024Z,15.60
2022-08-07T23:17:20.371Z,15.60
2022-08-07T23:20:40.535Z,15.60
2022-08-07T23:24:04.211Z,15.60
2022-08-07T23:27:07.763Z,15.60
2022-08-07T23:30:38.896Z,15.40
2022-08-07T23:34:36.192Z,15.40
2022-08-07T23:36:31.824Z,15.30
2022-08-07T23:39:09.376Z,15.20
2022-08-07T23:42:05.038Z,15.10
2022-08-07T23:45:15.261Z,15.00
2022-08-07T23:48:33.932Z,15.00
2022-08-07T23:53:01.513Z,15.00
2022-08-07T23:54:19.807Z,15.10
2022-08-07T23:57:18.637Z,15.10
